Terminal Aerodrome Forecast
Issued by NWS

Home | Current Version | Previous Version | Text Only | Print | Product List | Glossary On
Versions: 1 2 3 4 5 6 7 8 9 10 11 12 13 14 15 16 17 18 19 20 21 22 23 24 25
000
FTUS41 KBUF 312153 AAA
TAFIAG
TAF AMD
KIAG 312153Z 3122/0118 23015G24KT P6SM VCSH SCT060
     FM312300 24015KT P6SM VCSH BKN060
     FM010200 24008KT P6SM BKN050
     FM010600 26005KT P6SM SCT060
     FM011400 26010KT P6SM SCT050
     FM011600 26013G19KT P6SM BKN050=

USA.gov is the U.S. government's official web portal to all federal, state and local government web resources and services.